ISABELLA DAM (ISB)

Elevation: 2635' · KERN R basin · Operator: US Army Corps of Engineers

Provisional data, subject to change.
Query executed Friday at 15:24:31   clock

Select a sensor type for a plot of data.
Note: Reservoir Flows are daily averages.

Earlier

Date RES ELE    STORAGE    RES CHG    TOC STO    ABV TOC    OUTFLOW    INFLOW    FNF    PPT INC    PPTINC4    TEMP MN    TEMP MX    WINDLEN    EVP PAN   
 FEET   AF   AF   AF   AF   CFS   CFS   CFS   INCHES   INCHES   DEG F   DEG F   MILES   INCHES  
06/02/2016 2554.68 137856 2233 361250 -223394 686 1885 1885 0.00 0.00 21 35 240 0.47
06/03/2016 2555.17 140430 2574 361250 -220820 612 1979 1979 0.00 0.00 19 36 193 0.44
06/04/2016 2555.64 142928 2498 361250 -218322 600 1937 1937 0.01 0.00 19 38 209 0.48
06/05/2016 2556.02 144970 2042 361250 -216280 769 1881 1881 0.00 0.00 22 34 298 0.50
06/06/2016 2556.38 146921 1951 361250 -214329 832 1901 1901 0.00 0.00 22 34 355 0.52
06/07/2016 2556.75 148945 2024 361250 -212305 836 1941 1941 0.00 0.00 23 34 354 0.51
06/08/2016 2557.10 150875 1930 361250 -210375 868 1924 1924 0.00 0.00 22 32 390 0.50
06/09/2016 2557.43 152711 1836 361250 -208539 817 1827 1827 0.00 0.00 20 33 394 0.50
06/10/2016 2557.68 154111 1400 361250 -207139 742 1519 1519 0.00 0.00 19 30 356 0.42
06/11/2016 2557.88 155236 1125 361250 -206014 707 1346 1346 0.00 0.00 18 31 303 0.42
06/12/2016 2558.02 156028 792 361250 -205222 735 1198 1198 0.00 0.00 16 28 329 0.37
06/13/2016 2558.17 156879 851 361250 -204371 772 1271 1271 0.01 0.00 17 29 528 0.41
06/14/2016 2558.25 157333 454 361250 -203917 761 1064 1064 0.00 0.00 16 26 718 0.43
06/15/2016 2558.32 157732 399 361250 -203518 746 1012 1012 0.00 0.00 14 23 641 0.38
06/16/2016 2558.41 158246 514 361250 -203004 715 1036 1036 0.00 0.00 10 23 448 0.36
06/17/2016 2558.51 158818 572 361250 -202432 667 1022 1022 0.08 0.00 13 29 240 0.38
06/18/2016 2558.58 159219 401 361250 -202031 652 928 928 0.02 0.00 17 31 284 0.43
06/19/2016 2558.63 159506 287 361250 -201744 688 912 912 0.05 0.00 15 37 234 0.46
06/20/2016 2558.64 159564 58 361250 -201686 748 863 863 0.03 0.00 18 38 270 0.49
06/21/2016 2558.70 159908 344 361250 -201342 736 1010 1010 0.00 0.00 24 36 414 0.58
06/22/2016 2558.79 160427 519 361250 -200823 694 1056 1056 0.00 0.00 25 35 389 0.57
06/23/2016 2558.87 160888 461 361250 -200362 675 1015 1015 0.00 0.00 22 34 498 0.62
06/24/2016 2558.96 161408 520 361250 -199842 668 1028 1028 0.00 0.00 20 31 537 0.56
06/25/2016 2559.04 161872 464 361250 -199378 634 947 947 0.01 0.00 18 34 318 0.45
06/26/2016 2559.07 162046 174 361250 -199204 659 830 830 0.05 0.00 18 38 238 0.47
06/27/2016 2559.08 162104 58 361250 -199146 708 826 826 0.02 0.00 20 39 278 0.51
06/28/2016 2559.09 162162 58 361250 -199088 739 839 839 0.00 0.00 23 38 224 0.40
06/29/2016 2559.08 162104 -58 361250 -199146 780 832 832 0.08 0.00 20 38 244 0.47
06/30/2016 2559.06 161988 -116 361250 -199262 768 806 806 0.00 0.00 22 39 253 0.52
07/01/2016 -- -- -- -- -- -- -- -- -- 0.00 -- -- -- --

Later | Latest

Warning! This data is preliminary and subject to revision.

Show ISB Map | Plot ISB Data | 1 Month ISB Data | Real-Time ISB Data | ISB Info